TimePST,TemperatureF,Dew PointF,Humidity,Sea Level PressureIn,VisibilityMPH,Wind Direction,Wind SpeedMPH,Gust SpeedMPH,PrecipitationIn,Events,Conditions,WindDirDegrees,DateUTC
12:50 AM,34.9,20.8,57,30.02,15.0,West,8.1,-,N/A,,Mostly Cloudy,270,2013-03-05 08:50:00
1:50 AM,36.5,21.0,54,30.01,15.0,WNW,11.5,-,N/A,,Mostly Cloudy,290,2013-03-05 09:50:00
2:50 AM,32.4,21.0,63,30.01,15.0,NNW,6.9,-,N/A,,Mostly Cloudy,330,2013-03-05 10:50:00
3:50 AM,33.6,21.9,62,30.00,15.0,WNW,11.5,-,N/A,,Mostly Cloudy,300,2013-03-05 11:50:00
4:50 AM,34.5,21.9,60,30.00,15.0,NW,13.8,-,N/A,,Overcast,310,2013-03-05 12:50:00
5:50 AM,35.4,21.9,58,30.00,15.0,WNW,12.7,-,N/A,,Overcast,300,2013-03-05 13:50:00
6:50 AM,36.5,21.9,56,29.99,15.0,WNW,12.7,-,N/A,,Overcast,300,2013-03-05 14:50:00
7:50 AM,37.8,22.5,54,29.99,15.0,NW,15.0,-,N/A,,Overcast,310,2013-03-05 15:50:00
8:50 AM,39.7,22.6,50,29.97,15.0,NW,13.8,-,N/A,,Overcast,310,2013-03-05 16:50:00
9:50 AM,41.2,23.0,48,29.94,15.0,NW,15.0,-,N/A,,Overcast,310,2013-03-05 17:50:00
10:50 AM,41.5,23.7,49,29.94,15.0,NNE,6.9,-,N/A,,Overcast,30,2013-03-05 18:50:00
11:50 AM,41.5,24.1,50,29.94,15.0,North,4.6,-,0.00,,Small Hail Showers,350,2013-03-05 19:50:00
12:50 PM,43.2,24.1,47,29.93,15.0,NNW,9.2,-,N/A,,Overcast,330,2013-03-05 20:50:00
1:50 PM,44.6,27.7,52,29.91,15.0,North,10.4,-,0.00,,Overcast,360,2013-03-05 21:50:00
2:50 PM,45.7,29.8,54,29.90,15.0,North,8.1,-,N/A,,Overcast,350,2013-03-05 22:50:00
3:50 PM,44.6,30.2,57,29.91,15.0,NW,5.8,-,N/A,,Overcast,320,2013-03-05 23:50:00
4:50 PM,43.0,32.9,68,29.90,15.0,North,5.8,-,N/A,,Overcast,360,2013-03-06 00:50:00
5:50 PM,41.0,34.0,76,29.90,15.0,North,4.6,-,N/A,,Overcast,360,2013-03-06 01:50:00
6:50 PM,39.6,33.8,80,29.90,15.0,WNW,8.1,-,N/A,,Overcast,290,2013-03-06 02:50:00
10:50 PM,36.9,35.8,96,29.84,15.0,WNW,11.5,-,0.01,Rain,Light Rain,300,2013-03-06 06:50:00
11:50 PM,36.9,35.6,95,29.83,15.0,WNW,11.5,-,N/A,Rain,Light Rain,300,2013-03-06 07:50:00